createdAt,value
2022-10-06T00:00:48.069Z,0.30
2022-10-06T00:03:14.885Z,0.50
2022-10-06T00:05:42.053Z,0.60
2022-10-06T00:08:10.294Z,0.60
2022-10-06T00:10:37.016Z,0.53
2022-10-06T00:13:03.484Z,0.50
2022-10-06T00:15:31.611Z,0.60
2022-10-06T00:17:58.541Z,0.70
2022-10-06T00:20:28.800Z,0.70
2022-10-06T00:22:57.085Z,0.70
2022-10-06T00:25:24.668Z,0.83
2022-10-06T00:27:52.230Z,0.70
2022-10-06T00:30:21.573Z,0.70
2022-10-06T00:32:57.212Z,0.73
2022-10-06T00:35:29.433Z,0.60
2022-10-06T00:37:55.888Z,1.00
2022-10-06T00:40:22.924Z,0.77
2022-10-06T00:42:55.407Z,1.33
2022-10-06T00:45:41.543Z,0.97
2022-10-06T00:48:13.174Z,0.77
2022-10-06T00:50:40.311Z,0.70
2022-10-06T00:53:07.077Z,0.80
2022-10-06T00:55:33.518Z,0.83
2022-10-06T00:58:00.309Z,1.17
2022-10-06T01:00:27.216Z,1.00
2022-10-06T01:03:17.826Z,0.80
2022-10-06T01:05:47.423Z,0.83
2022-10-06T01:08:15.162Z,0.83
2022-10-06T01:10:41.761Z,0.80
2022-10-06T01:13:10.614Z,1.10
2022-10-06T01:15:45.093Z,0.70
2022-10-06T01:18:13.936Z,1.00
2022-10-06T01:20:55.973Z,1.00
2022-10-06T01:23:22.946Z,0.90
2022-10-06T01:25:49.407Z,1.20
2022-10-06T01:28:15.897Z,0.80
2022-10-06T01:30:52.549Z,1.10
2022-10-06T01:33:20.693Z,1.00
2022-10-06T01:35:49.419Z,0.97
2022-10-06T01:38:17.183Z,0.60
2022-10-06T01:40:44.904Z,0.70
2022-10-06T01:43:11.366Z,1.03
2022-10-06T01:45:37.880Z,1.00
2022-10-06T01:48:04.711Z,1.70
2022-10-06T01:50:31.205Z,0.90
2022-10-06T01:52:57.814Z,1.07
2022-10-06T01:55:25.083Z,0.90
2022-10-06T01:57:51.625Z,1.10
2022-10-06T02:00:19.156Z,1.00
2022-10-06T02:02:45.712Z,1.00
2022-10-06T02:05:12.444Z,0.80
2022-10-06T02:07:39.042Z,0.90
2022-10-06T02:10:06.359Z,1.43
2022-10-06T02:12:35.011Z,1.23
2022-10-06T02:15:01.446Z,1.00
2022-10-06T02:17:29.150Z,0.90
2022-10-06T02:19:55.562Z,1.00
2022-10-06T02:22:22.029Z,1.27
2022-10-06T02:24:48.537Z,1.10
2022-10-06T02:27:14.966Z,1.10
2022-10-06T02:29:41.436Z,0.80
2022-10-06T02:32:07.891Z,1.10
2022-10-06T02:34:34.306Z,1.00
2022-10-06T02:37:00.722Z,0.87
2022-10-06T02:39:27.102Z,1.00
2022-10-06T02:41:53.505Z,0.93
2022-10-06T02:44:20.013Z,1.30
2022-10-06T02:46:48.162Z,1.33
2022-10-06T02:49:14.577Z,0.90
2022-10-06T02:51:40.993Z,0.83
2022-10-06T02:54:07.452Z,1.20
2022-10-06T02:56:33.921Z,1.00
2022-10-06T02:59:00.343Z,1.33
2022-10-06T03:01:28.594Z,0.97
2022-10-06T03:03:55.195Z,1.00
2022-10-06T03:06:24.417Z,1.17
2022-10-06T03:08:58.723Z,1.30
2022-10-06T03:11:29.968Z,1.63
2022-10-06T03:13:57.156Z,1.10
2022-10-06T03:16:24.767Z,1.30
2022-10-06T03:18:55.530Z,1.27
2022-10-06T03:21:24.797Z,1.43
2022-10-06T03:23:53.326Z,1.20
2022-10-06T03:26:21.729Z,1.47
2022-10-06T03:28:48.437Z,1.60
2022-10-06T03:31:15.301Z,1.30
2022-10-06T03:33:41.950Z,1.07
2022-10-06T03:36:14.403Z,1.30
2022-10-06T03:38:40.991Z,1.60
2022-10-06T03:41:07.682Z,1.30
2022-10-06T03:43:35.290Z,1.27
2022-10-06T03:46:02.589Z,1.60
2022-10-06T03:48:30.302Z,1.53
2022-10-06T03:50:58.280Z,1.70
2022-10-06T03:53:28.415Z,1.67
2022-10-06T03:56:05.568Z,1.60
2022-10-06T03:58:34.248Z,1.37
2022-10-06T04:01:05.782Z,1.33
2022-10-06T04:03:33.103Z,1.30
2022-10-06T04:06:02.040Z,1.23
2022-10-06T04:08:29.769Z,1.70
2022-10-06T04:11:04.996Z,1.40
2022-10-06T04:13:31.466Z,1.57
2022-10-06T04:15:57.906Z,1.73
2022-10-06T04:18:24.522Z,1.60
2022-10-06T04:20:50.945Z,1.50
2022-10-06T04:23:17.387Z,1.50
2022-10-06T04:25:43.774Z,1.43
2022-10-06T04:28:10.826Z,1.70
2022-10-06T04:30:37.402Z,1.50
2022-10-06T04:33:04.001Z,1.60
2022-10-06T04:35:30.408Z,1.57
2022-10-06T04:37:57.198Z,1.40
2022-10-06T04:40:23.586Z,1.60
2022-10-06T04:42:50.082Z,1.60
2022-10-06T04:45:16.575Z,1.40
2022-10-06T04:47:42.988Z,1.30
2022-10-06T04:50:09.735Z,1.60
2022-10-06T04:52:36.347Z,1.90
2022-10-06T04:55:03.334Z,2.13
2022-10-06T04:57:29.778Z,1.80
2022-10-06T05:00:15.315Z,1.60
2022-10-06T05:02:41.799Z,1.60
2022-10-06T05:05:09.706Z,1.60
2022-10-06T05:07:36.141Z,1.80
2022-10-06T05:10:02.810Z,1.03
2022-10-06T05:12:31.638Z,1.60
2022-10-06T05:14:58.225Z,1.40
2022-10-06T05:17:24.699Z,1.20
2022-10-06T05:19:51.152Z,2.20
2022-10-06T05:22:17.562Z,1.67
2022-10-06T05:24:43.934Z,2.27
2022-10-06T05:27:10.353Z,2.20
2022-10-06T05:29:36.762Z,1.67
2022-10-06T05:32:03.576Z,1.93
2022-10-06T05:34:30.246Z,1.30
2022-10-06T05:36:56.747Z,1.30
2022-10-06T05:39:23.175Z,1.93
2022-10-06T05:41:49.946Z,1.43
2022-10-06T05:44:17.823Z,1.70
2022-10-06T05:46:44.298Z,1.50
2022-10-06T05:49:12.791Z,1.60
2022-10-06T05:51:42.090Z,2.00
2022-10-06T05:54:08.980Z,1.73
2022-10-06T05:56:37.397Z,1.50
2022-10-06T05:59:04.490Z,2.77
2022-10-06T06:01:34.740Z,1.70
2022-10-06T06:04:06.718Z,2.13
2022-10-06T06:06:38.100Z,1.63
2022-10-06T06:09:15.502Z,1.63
2022-10-06T06:11:52.958Z,1.53
2022-10-06T06:14:40.963Z,1.77
2022-10-06T06:17:07.411Z,2.80
2022-10-06T06:19:34.006Z,1.67
2022-10-06T06:22:00.820Z,1.87
2022-10-06T06:24:27.552Z,1.93
2022-10-06T06:26:54.128Z,2.10
2022-10-06T06:29:20.517Z,2.13
2022-10-06T06:31:48.536Z,2.10
2022-10-06T06:34:15.186Z,1.90
2022-10-06T06:36:44.948Z,1.80
2022-10-06T06:39:13.301Z,1.50
2022-10-06T06:41:47.439Z,1.80
2022-10-06T06:44:15.235Z,2.30
2022-10-06T06:46:48.339Z,2.03
2022-10-06T06:49:16.424Z,1.87
2022-10-06T06:51:44.536Z,1.80
2022-10-06T06:54:12.327Z,2.00
2022-10-06T06:56:51.954Z,2.07
2022-10-06T06:59:18.935Z,1.30
2022-10-06T07:01:47.153Z,2.03
2022-10-06T07:04:15.547Z,1.97
2022-10-06T07:06:46.516Z,1.83
2022-10-06T07:09:14.173Z,1.80
2022-10-06T07:11:41.021Z,2.00
2022-10-06T07:14:09.599Z,2.13
2022-10-06T07:16:54.774Z,1.43
2022-10-06T07:19:57.562Z,2.03
2022-10-06T07:23:05.632Z,2.00
2022-10-06T07:25:32.245Z,2.17
2022-10-06T07:27:58.699Z,1.97
2022-10-06T07:30:29.721Z,1.60
2022-10-06T07:32:56.945Z,2.07
2022-10-06T07:35:24.104Z,2.57
2022-10-06T07:37:51.270Z,1.80
2022-10-06T07:40:18.484Z,1.90
2022-10-06T07:42:53.860Z,2.17
2022-10-06T07:45:41.854Z,1.80
2022-10-06T07:48:14.808Z,1.67
2022-10-06T07:50:42.640Z,1.80
2022-10-06T07:53:09.249Z,2.03
2022-10-06T07:55:39.984Z,1.60
2022-10-06T07:58:21.400Z,2.60
2022-10-06T08:00:48.846Z,1.70
2022-10-06T08:03:19.315Z,2.00
2022-10-06T08:05:47.034Z,1.57
2022-10-06T08:08:14.885Z,2.13
2022-10-06T08:10:42.376Z,2.33
2022-10-06T08:13:10.326Z,1.90
2022-10-06T08:15:37.006Z,2.13
2022-10-06T08:18:12.165Z,2.30
2022-10-06T08:20:47.957Z,1.77
2022-10-06T08:23:14.513Z,2.00
2022-10-06T08:25:43.254Z,2.33
2022-10-06T08:28:10.989Z,2.20
2022-10-06T08:30:37.925Z,1.90
2022-10-06T08:33:05.681Z,1.70
2022-10-06T08:35:33.001Z,1.33
2022-10-06T08:37:59.540Z,2.50
2022-10-06T08:40:26.799Z,1.70
2022-10-06T08:42:58.306Z,1.73
2022-10-06T08:45:29.399Z,2.43
2022-10-06T08:48:18.070Z,2.60
2022-10-06T08:51:02.374Z,2.30
2022-10-06T08:53:38.262Z,1.77
2022-10-06T08:56:27.002Z,2.03
2022-10-06T08:58:55.906Z,1.83
2022-10-06T09:01:27.801Z,2.73
2022-10-06T09:04:02.018Z,2.40
2022-10-06T09:06:51.718Z,1.50
2022-10-06T09:09:56.787Z,1.60
2022-10-06T09:12:31.255Z,2.20
2022-10-06T09:15:33.908Z,2.37
2022-10-06T09:19:03.553Z,2.20
2022-10-06T09:21:35.863Z,2.93
2022-10-06T09:24:07.748Z,1.83
2022-10-06T09:26:34.397Z,2.07
2022-10-06T09:29:00.817Z,1.90
2022-10-06T09:31:29.667Z,2.67
2022-10-06T09:34:05.321Z,1.77
2022-10-06T09:36:32.013Z,1.73
2022-10-06T09:38:59.898Z,2.20
2022-10-06T09:41:45.738Z,1.87
2022-10-06T09:44:24.840Z,2.00
2022-10-06T09:46:53.928Z,2.20
2022-10-06T09:49:24.967Z,1.73
2022-10-06T09:52:18.348Z,2.23
2022-10-06T09:54:44.907Z,1.87
2022-10-06T09:57:16.736Z,2.20
2022-10-06T09:59:45.416Z,1.80
2022-10-06T10:02:40.940Z,2.13
2022-10-06T10:05:20.887Z,1.63
2022-10-06T10:08:01.382Z,1.93
2022-10-06T10:10:27.822Z,2.07
2022-10-06T10:12:58.783Z,1.93
2022-10-06T10:15:38.191Z,1.77
2022-10-06T10:18:12.506Z,1.80
2022-10-06T10:20:40.534Z,1.40
2022-10-06T10:23:21.428Z,1.80
2022-10-06T10:26:10.337Z,1.70
2022-10-06T10:28:55.050Z,1.90
2022-10-06T10:31:48.216Z,1.87
2022-10-06T10:34:24.490Z,1.97
2022-10-06T10:36:59.896Z,2.50
2022-10-06T10:39:29.350Z,1.50
2022-10-06T10:41:57.043Z,1.87
2022-10-06T10:44:35.344Z,1.70
2022-10-06T10:47:11.332Z,1.60
2022-10-06T10:49:39.690Z,1.90
2022-10-06T10:52:11.424Z,1.50
2022-10-06T10:54:39.657Z,1.40
2022-10-06T10:57:11.543Z,1.60
2022-10-06T10:59:43.818Z,1.50
2022-10-06T11:02:18.394Z,1.47
2022-10-06T11:04:47.818Z,1.47
2022-10-06T11:07:24.323Z,1.73
2022-10-06T11:10:13.717Z,1.53
2022-10-06T11:12:54.499Z,2.37
2022-10-06T11:15:46.386Z,1.37
2022-10-06T11:18:22.385Z,1.53
2022-10-06T11:20:53.501Z,1.50
2022-10-06T11:23:35.112Z,1.87
2022-10-06T11:26:04.555Z,1.70
2022-10-06T11:28:46.281Z,1.40
2022-10-06T11:31:23.299Z,1.47
2022-10-06T11:33:52.888Z,1.50
2022-10-06T11:36:42.219Z,1.67
2022-10-06T11:39:20.833Z,1.67
2022-10-06T11:42:00.847Z,1.83
2022-10-06T11:44:44.713Z,1.43
2022-10-06T11:47:16.273Z,1.23
2022-10-06T11:49:49.634Z,1.40
2022-10-06T11:52:16.107Z,1.20
2022-10-06T11:54:53.316Z,1.97
2022-10-06T11:57:26.253Z,1.20
2022-10-06T11:59:56.633Z,1.33
2022-10-06T12:02:32.215Z,1.20
2022-10-06T12:05:37.413Z,1.33
2022-10-06T12:08:00.111Z,1.50
2022-10-06T12:10:29.508Z,1.20
2022-10-06T12:13:17.273Z,1.60
2022-10-06T12:18:45.190Z,1.37
2022-10-06T12:21:30.768Z,1.33
2022-10-06T12:24:03.419Z,1.40
2022-10-06T12:27:08.654Z,1.40
2022-10-06T12:29:43.318Z,1.37
2022-10-06T12:32:18.009Z,1.20
2022-10-06T12:35:01.202Z,1.17
2022-10-06T12:37:44.320Z,1.40
2022-10-06T12:40:41.806Z,1.17
2022-10-06T12:43:29.900Z,1.17
2022-10-06T12:46:16.398Z,1.07
2022-10-06T12:48:58.273Z,1.63
2022-10-06T12:51:30.392Z,1.20
2022-10-06T12:54:20.209Z,1.20
2022-10-06T12:57:14.929Z,1.83
2022-10-06T12:59:41.819Z,1.47
2022-10-06T13:02:19.766Z,1.60
2022-10-06T13:05:13.221Z,1.30
2022-10-06T13:08:25.246Z,1.23
2022-10-06T13:10:52.359Z,1.03
2022-10-06T13:13:24.518Z,1.03
2022-10-06T13:15:56.087Z,1.40
2022-10-06T13:18:23.511Z,1.60
2022-10-06T13:20:56.672Z,1.57
2022-10-06T13:23:26.490Z,1.60
2022-10-06T13:25:54.530Z,1.87
2022-10-06T13:28:27.288Z,1.53
2022-10-06T13:31:18.087Z,1.27
2022-10-06T13:33:46.013Z,1.43
2022-10-06T13:36:14.191Z,1.47
2022-10-06T13:38:44.623Z,1.10
2022-10-06T13:41:11.902Z,1.20
2022-10-06T13:43:41.314Z,1.83
2022-10-06T13:46:15.965Z,1.33
2022-10-06T13:49:04.936Z,1.53
2022-10-06T13:51:32.889Z,1.50
2022-10-06T13:54:10.696Z,1.47
2022-10-06T13:56:40.561Z,1.27
2022-10-06T13:59:30.005Z,1.40
2022-10-06T14:02:21.528Z,1.30
2022-10-06T14:05:20.765Z,1.00
2022-10-06T14:07:48.100Z,1.10
2022-10-06T14:10:23.339Z,1.43
2022-10-06T14:12:49.956Z,1.17
2022-10-06T14:15:19.459Z,1.20
2022-10-06T14:17:46.329Z,1.47
2022-10-06T14:20:40.089Z,1.53
2022-10-06T14:23:49.773Z,1.30
2022-10-06T14:26:20.977Z,1.30
2022-10-06T14:28:56.833Z,1.30
2022-10-06T14:31:30.513Z,1.20
2022-10-06T14:34:02.927Z,1.20
2022-10-06T14:36:39.074Z,1.10
2022-10-06T14:39:12.450Z,1.03
2022-10-06T14:41:42.762Z,1.27
2022-10-06T14:44:14.929Z,0.93
2022-10-06T14:46:48.431Z,1.30
2022-10-06T14:49:25.437Z,1.40
2022-10-06T14:51:59.089Z,1.40
2022-10-06T14:54:39.343Z,1.40
2022-10-06T14:57:10.577Z,1.90
2022-10-06T14:59:41.074Z,1.50
2022-10-06T15:02:12.053Z,1.40
2022-10-06T15:04:40.149Z,1.77
2022-10-06T15:07:28.763Z,1.70
2022-10-06T15:09:58.337Z,1.20
2022-10-06T15:12:33.107Z,1.20
2022-10-06T15:15:02.839Z,1.13
2022-10-06T15:17:32.089Z,1.20
2022-10-06T15:20:03.986Z,1.47
2022-10-06T15:22:34.602Z,1.50
2022-10-06T15:25:10.546Z,1.23
2022-10-06T15:28:15.232Z,1.30
2022-10-06T15:30:45.023Z,1.30
2022-10-06T15:33:14.313Z,1.27
2022-10-06T15:35:48.375Z,1.17
2022-10-06T15:38:15.613Z,1.30
2022-10-06T15:40:43.571Z,1.23
2022-10-06T15:43:13.551Z,1.13
2022-10-06T15:45:40.600Z,1.63
2022-10-06T15:48:09.869Z,1.20
2022-10-06T15:50:36.633Z,1.20
2022-10-06T15:53:05.601Z,1.33
2022-10-06T15:55:33.604Z,1.13
2022-10-06T15:58:02.772Z,1.40
2022-10-06T16:00:33.319Z,1.40
2022-10-06T16:03:02.377Z,1.30
2022-10-06T16:05:56.753Z,1.30
2022-10-06T16:08:26.257Z,1.17
2022-10-06T16:10:56.190Z,1.43
2022-10-06T16:13:24.907Z,1.40
2022-10-06T16:15:56.452Z,1.27
2022-10-06T16:18:23.666Z,1.60
2022-10-06T16:20:58.279Z,1.30
2022-10-06T16:23:27.699Z,1.70
2022-10-06T16:25:56.070Z,1.60
2022-10-06T16:28:24.215Z,1.27
2022-10-06T16:30:54.871Z,1.27
2022-10-06T16:33:21.348Z,1.30
2022-10-06T16:35:58.001Z,1.47
2022-10-06T16:38:25.939Z,1.60
2022-10-06T16:40:56.893Z,1.60
2022-10-06T16:43:31.936Z,1.60
2022-10-06T16:46:02.387Z,1.40
2022-10-06T16:48:29.548Z,1.77
2022-10-06T16:51:13.669Z,1.07
2022-10-06T16:54:03.211Z,1.90
2022-10-06T16:56:35.317Z,1.63
2022-10-06T16:59:05.506Z,1.50
2022-10-06T17:01:36.586Z,1.53
2022-10-06T17:04:13.155Z,1.87
2022-10-06T17:06:42.942Z,1.40
2022-10-06T17:09:14.030Z,1.80
2022-10-06T17:11:42.728Z,1.33
2022-10-06T17:14:09.131Z,1.80
2022-10-06T17:16:37.592Z,2.77
2022-10-06T17:19:04.659Z,1.90
2022-10-06T17:21:48.755Z,3.03
2022-10-06T17:24:18.107Z,2.00
2022-10-06T17:26:46.992Z,3.03
2022-10-06T17:29:23.287Z,1.37
2022-10-06T17:31:53.264Z,1.20
2022-10-06T17:34:23.556Z,2.10
2022-10-06T17:36:52.340Z,1.67
2022-10-06T17:39:21.239Z,1.67
2022-10-06T17:41:49.513Z,1.20
2022-10-06T17:44:21.183Z,1.63
2022-10-06T17:46:48.956Z,1.40
2022-10-06T17:49:16.978Z,1.40
2022-10-06T17:51:51.180Z,2.00
2022-10-06T17:54:20.825Z,1.33
2022-10-06T17:56:52.741Z,1.70
2022-10-06T17:59:33.910Z,1.37
2022-10-06T18:02:02.951Z,1.77
2022-10-06T18:04:29.734Z,1.87
2022-10-06T18:06:57.120Z,1.40
2022-10-06T18:09:23.939Z,1.60
2022-10-06T18:11:55.958Z,2.00
2022-10-06T18:14:27.775Z,1.83
2022-10-06T18:17:00.541Z,1.70
2022-10-06T18:19:29.944Z,1.70
2022-10-06T18:22:10.212Z,2.37
2022-10-06T18:24:36.821Z,2.60
2022-10-06T18:27:05.021Z,2.27
2022-10-06T18:29:33.635Z,2.67
2022-10-06T18:32:34.792Z,2.20
2022-10-06T18:37:34.060Z,2.00
2022-10-06T18:40:02.370Z,1.97
2022-10-06T18:42:29.127Z,2.60
2022-10-06T18:45:14.296Z,2.30
2022-10-06T18:47:59.690Z,2.10
2022-10-06T18:50:26.161Z,2.40
2022-10-06T18:52:52.704Z,2.30
2022-10-06T18:55:19.097Z,2.57
2022-10-06T18:57:45.901Z,2.30
2022-10-06T19:00:12.795Z,2.20
2022-10-06T19:02:39.255Z,2.30
2022-10-06T19:05:05.829Z,2.33
2022-10-06T19:07:32.258Z,2.10
2022-10-06T19:09:59.132Z,2.33
2022-10-06T19:12:25.622Z,2.20
2022-10-06T19:14:52.070Z,2.60
2022-10-06T19:17:18.684Z,2.40
2022-10-06T19:19:50.956Z,1.67
2022-10-06T19:22:22.445Z,2.00
2022-10-06T19:24:48.860Z,3.13
2022-10-06T19:27:20.645Z,2.07
2022-10-06T19:29:59.151Z,2.03
2022-10-06T19:32:28.078Z,2.20
2022-10-06T19:34:59.224Z,2.40
2022-10-06T19:37:27.945Z,1.83
2022-10-06T19:39:54.369Z,2.50
2022-10-06T19:42:39.429Z,2.60
2022-10-06T19:45:06.909Z,1.77
2022-10-06T19:47:33.655Z,2.50
2022-10-06T19:50:04.855Z,2.47
2022-10-06T19:52:34.195Z,2.73
2022-10-06T19:55:00.964Z,2.40
2022-10-06T19:57:29.139Z,1.80
2022-10-06T19:59:55.543Z,2.20
2022-10-06T20:02:22.291Z,2.10
2022-10-06T20:04:48.771Z,1.87
2022-10-06T20:07:15.215Z,2.33
2022-10-06T20:09:41.650Z,2.10
2022-10-06T20:12:08.129Z,1.77
2022-10-06T20:14:34.624Z,2.47
2022-10-06T20:17:02.644Z,2.13
2022-10-06T20:19:29.191Z,2.10
2022-10-06T20:21:55.776Z,2.33
2022-10-06T20:24:24.471Z,2.00
2022-10-06T20:26:52.171Z,2.27
2022-10-06T20:29:21.399Z,1.97
2022-10-06T20:31:50.769Z,2.27
2022-10-06T20:34:19.690Z,2.07
2022-10-06T20:36:49.523Z,2.20
2022-10-06T20:39:52.601Z,2.10
2022-10-06T20:42:20.231Z,2.07
2022-10-06T20:44:46.939Z,2.07
2022-10-06T20:47:14.697Z,2.40
2022-10-06T20:49:44.441Z,2.10
2022-10-06T20:52:14.335Z,2.70
2022-10-06T20:54:41.184Z,2.57
2022-10-06T20:57:09.260Z,1.83
2022-10-06T20:59:35.737Z,1.80
2022-10-06T21:02:02.900Z,2.10
2022-10-06T21:04:29.514Z,2.10
2022-10-06T21:06:56.194Z,2.40
2022-10-06T21:09:24.377Z,1.63
2022-10-06T21:11:50.990Z,1.77
2022-10-06T21:14:17.796Z,3.00
2022-10-06T21:16:45.843Z,1.87
2022-10-06T21:19:14.859Z,2.60
2022-10-06T21:21:42.892Z,2.27
2022-10-06T21:24:09.776Z,2.10
2022-10-06T21:26:38.782Z,2.47
2022-10-06T21:29:05.439Z,2.30
2022-10-06T21:31:33.279Z,2.47
2022-10-06T21:34:01.377Z,2.13
2022-10-06T21:36:31.669Z,3.17
2022-10-06T21:39:00.175Z,2.20
2022-10-06T21:41:32.156Z,2.00
2022-10-06T21:44:03.806Z,2.40
2022-10-06T21:46:47.220Z,2.40
2022-10-06T21:49:15.998Z,2.87
2022-10-06T21:51:45.735Z,2.33
2022-10-06T21:54:15.550Z,2.13
2022-10-06T21:56:45.691Z,2.50
2022-10-06T21:59:18.265Z,2.13
2022-10-06T22:01:46.730Z,2.70
2022-10-06T22:04:14.563Z,2.80
2022-10-06T22:06:41.748Z,2.90
2022-10-06T22:09:09.673Z,2.77
2022-10-06T22:11:38.577Z,2.37
2022-10-06T22:14:07.558Z,2.47
2022-10-06T22:16:35.410Z,2.97
2022-10-06T22:19:03.807Z,2.63
2022-10-06T22:21:32.395Z,3.10
2022-10-06T22:24:10.050Z,2.93
2022-10-06T22:26:38.395Z,2.80
2022-10-06T22:29:09.853Z,2.90
2022-10-06T22:31:38.528Z,3.10
2022-10-06T22:34:05.468Z,2.73
2022-10-06T22:36:33.645Z,4.67
2022-10-06T22:39:00.767Z,2.80
2022-10-06T22:41:27.926Z,2.90
2022-10-06T22:43:58.955Z,3.17
2022-10-06T22:46:27.076Z,3.27
2022-10-06T22:48:53.981Z,3.30
2022-10-06T22:51:20.747Z,2.97
2022-10-06T22:53:47.316Z,3.43
2022-10-06T22:56:13.890Z,3.13
2022-10-06T22:58:40.436Z,3.90
2022-10-06T23:01:15.112Z,4.00
2022-10-06T23:03:41.995Z,2.93
2022-10-06T23:06:10.695Z,4.03
2022-10-06T23:08:37.756Z,3.53
2022-10-06T23:11:08.922Z,3.53
2022-10-06T23:13:35.854Z,3.13
2022-10-06T23:16:08.410Z,3.33
2022-10-06T23:18:37.412Z,3.63
2022-10-06T23:21:17.585Z,3.33
2022-10-06T23:23:44.202Z,3.47
2022-10-06T23:26:13.319Z,4.20
2022-10-06T23:28:40.328Z,4.00
2022-10-06T23:31:08.449Z,3.50
2022-10-06T23:33:35.121Z,3.90
2022-10-06T23:36:07.103Z,4.27
2022-10-06T23:38:34.746Z,4.50
2022-10-06T23:41:03.323Z,4.03
2022-10-06T23:43:29.895Z,4.03
2022-10-06T23:45:56.881Z,3.83
2022-10-06T23:48:23.515Z,4.67
2022-10-06T23:51:07.392Z,4.20
2022-10-06T23:53:34.448Z,4.50
2022-10-06T23:56:01.145Z,4.57
2022-10-06T23:58:28.009Z,4.93
